Westfield, NJ (07091)

9:48 AM EDT on August 24, 2016 (GMT -0400)
Hunterdon Boulevard | | Change Station

Elev 518 ft 40.69 °N, 74.39 °W | Updated 7 minutes ago

Clear
Clear
69.8 °F
Feels Like 69.8 °F
N
1.2
Wind Variable Wind from WNW
Gusts 2.5 mph

Today
High -- | Low -- °F
--% Chance of Precip.
Yesterday
High -- | Low -- °F
Precip. -- in
Pressure 30.29 in
Visibility 10.0 miles
Clouds Clear
Dew Point 62 °F
Humidity 77%
Rainfall 0.00 in
Snow Depth Not available.
6:17 AM 7:41 PM
Waning Gibbous, 57% visible
METAR KMMU 241345Z 00000KT 10SM SKC 23/18 A3029
Pressure 30.29 in
Visibility 10.0 miles
Clouds Clear
Dew Point 62 °F
Humidity 77%
Rainfall 0.00 in
Snow Depth Not available.
6:17 AM 7:41 PM
Waning Gibbous, 57% visible
METAR KMMU 241345Z 00000KT 10SM SKC 23/18 A3029

10-Day Weather Forecast

Almanac

Astronomy

Aug. 24, 2016 Rise Set
Actual Time
Civil Twilight
Nautical Twilight
Astronomical Twilight
Moon
Length of Visible Light
Length of Day
Tomorrow will be .
, % of the Moon is Illuminated

Today's Extremes

State Highs State Lows

Community

WunderPhotos

Upload Photos

1,934,598 photos uploaded!

WunderBlog® & News

Nearby

Air Quality

  Air Quality AQ Index Pollutant
Not available.

Snow Depth

Station Depth Elevation

Earthquake Activity

City Distance Mag. Time & Date
Minimum magnitude displayed is 2.5.

Coastal Water Temperatures

Place Temperature

Stations

Nearby Weather Stations

Station Location Temp. Windchill Dew Point Humidity Wind Precip. Elev Updated Type
                   

Watches & Warnings

There are currently no watches in effect.